createdAt,value
2023-03-06T00:01:19.550Z,22.18
2023-03-06T00:03:56.919Z,22.12
2023-03-06T00:06:30.544Z,22.05
2023-03-06T00:09:02.251Z,21.98
2023-03-06T00:11:37.215Z,21.91
2023-03-06T00:14:10.453Z,21.85
2023-03-06T00:16:41.188Z,21.80
2023-03-06T00:19:11.847Z,21.74
2023-03-06T00:21:46.958Z,21.61
2023-03-06T00:24:17.494Z,21.56
2023-03-06T00:26:54.168Z,21.53
2023-03-06T00:29:25.869Z,21.47
2023-03-06T00:31:59.176Z,21.46
2023-03-06T00:34:30.565Z,21.44
2023-03-06T00:37:01.590Z,21.43
2023-03-06T00:39:31.889Z,21.34
2023-03-06T00:42:03.873Z,21.32
2023-03-06T00:44:40.418Z,21.27
2023-03-06T00:47:11.265Z,21.20
2023-03-06T00:49:44.843Z,21.15
2023-03-06T00:52:16.018Z,21.15
2023-03-06T00:54:46.246Z,21.15
2023-03-06T00:57:19.750Z,21.12
2023-03-06T00:59:51.205Z,20.98
2023-03-06T01:02:25.219Z,20.99
2023-03-06T01:04:57.028Z,21.03
2023-03-06T01:07:28.581Z,21.00
2023-03-06T01:10:01.267Z,20.99
2023-03-06T01:12:31.540Z,20.92
2023-03-06T01:15:01.465Z,20.92
2023-03-06T01:17:31.372Z,20.85
2023-03-06T01:20:01.248Z,20.82
2023-03-06T01:22:31.401Z,20.78
2023-03-06T01:25:02.049Z,20.76
2023-03-06T01:27:32.056Z,20.74
2023-03-06T01:30:01.682Z,20.68
2023-03-06T01:32:32.706Z,20.65
2023-03-06T01:35:04.889Z,20.58
2023-03-06T01:37:36.424Z,20.64
2023-03-06T01:40:09.733Z,20.55
2023-03-06T01:42:39.616Z,20.38
2023-03-06T01:45:15.623Z,20.43
2023-03-06T01:47:46.366Z,20.43
2023-03-06T01:50:16.943Z,20.47
2023-03-06T01:52:48.854Z,20.41
2023-03-06T01:55:26.267Z,20.35
2023-03-06T01:58:00.056Z,20.30
2023-03-06T02:00:31.595Z,20.26
2023-03-06T02:03:15.229Z,20.30
2023-03-06T02:05:46.145Z,20.27
2023-03-06T02:08:19.387Z,20.16
2023-03-06T02:11:00.232Z,20.14
2023-03-06T02:13:31.343Z,20.12
2023-03-06T02:16:01.582Z,20.12
2023-03-06T02:18:31.724Z,20.05
2023-03-06T02:21:05.539Z,20.09
2023-03-06T02:24:03.132Z,20.03
2023-03-06T02:26:35.992Z,19.96
2023-03-06T02:29:06.295Z,19.80
2023-03-06T02:31:36.794Z,19.86
2023-03-06T02:34:18.600Z,19.92
2023-03-06T02:36:56.207Z,19.92
2023-03-06T02:39:29.630Z,19.93
2023-03-06T02:41:59.622Z,19.92
2023-03-06T02:44:34.158Z,19.87
2023-03-06T02:47:04.183Z,19.83
2023-03-06T02:49:33.811Z,19.76
2023-03-06T02:52:03.669Z,19.73
2023-03-06T02:54:33.849Z,19.70
2023-03-06T02:57:03.757Z,19.66
2023-03-06T02:59:34.625Z,19.59
2023-03-06T03:02:06.918Z,19.61
2023-03-06T03:04:36.964Z,19.63
2023-03-06T03:07:08.014Z,19.56
2023-03-06T03:09:38.433Z,19.51
2023-03-06T03:12:09.310Z,19.45
2023-03-06T03:14:39.327Z,19.51
2023-03-06T03:17:11.016Z,19.51
2023-03-06T03:19:40.933Z,19.45
2023-03-06T03:22:10.907Z,19.44
2023-03-06T03:24:41.165Z,19.41
2023-03-06T03:27:11.426Z,19.35
2023-03-06T03:29:42.638Z,19.35
2023-03-06T03:32:12.880Z,19.31
2023-03-06T03:34:44.646Z,19.32
2023-03-06T03:37:15.033Z,19.29
2023-03-06T03:39:45.644Z,19.27
2023-03-06T03:42:15.762Z,19.29
2023-03-06T03:44:45.737Z,19.25
2023-03-06T03:47:15.722Z,19.27
2023-03-06T03:49:45.486Z,19.22
2023-03-06T03:52:15.229Z,19.21
2023-03-06T03:54:45.045Z,19.18
2023-03-06T03:57:15.105Z,19.14
2023-03-06T03:59:50.261Z,19.10
2023-03-06T04:02:31.822Z,19.10
2023-03-06T04:05:14.148Z,19.06
2023-03-06T04:07:45.060Z,19.00
2023-03-06T04:10:15.174Z,19.00
2023-03-06T04:12:45.749Z,18.98
2023-03-06T04:15:15.779Z,18.96
2023-03-06T04:17:48.346Z,18.97
2023-03-06T04:20:22.659Z,18.93
2023-03-06T04:22:52.747Z,18.91
2023-03-06T04:25:22.931Z,18.94
2023-03-06T04:27:52.772Z,18.87
2023-03-06T04:30:22.925Z,18.83
2023-03-06T04:32:53.170Z,18.78
2023-03-06T04:35:23.170Z,18.78
2023-03-06T04:38:00.062Z,18.76
2023-03-06T04:40:35.370Z,18.68
2023-03-06T04:43:06.555Z,18.66
2023-03-06T04:45:36.846Z,18.59
2023-03-06T04:48:06.931Z,18.59
2023-03-06T04:50:39.110Z,18.60
2023-03-06T04:53:09.749Z,18.64
2023-03-06T04:55:39.700Z,18.53
2023-03-06T04:58:09.447Z,18.56
2023-03-06T05:00:39.092Z,18.52
2023-03-06T05:03:10.293Z,18.46
2023-03-06T05:05:40.122Z,18.46
2023-03-06T05:08:14.110Z,18.40
2023-03-06T05:10:45.031Z,18.36
2023-03-06T05:13:14.957Z,18.40
2023-03-06T05:15:44.566Z,18.39
2023-03-06T05:18:14.499Z,18.36
2023-03-06T05:20:44.301Z,18.30
2023-03-06T05:23:14.285Z,18.33
2023-03-06T05:25:44.316Z,18.36
2023-03-06T05:28:13.900Z,18.35
2023-03-06T05:30:43.832Z,18.33
2023-03-06T05:33:15.388Z,18.32
2023-03-06T05:35:49.337Z,18.33
2023-03-06T05:38:20.349Z,18.32
2023-03-06T05:40:50.090Z,18.25
2023-03-06T05:43:19.852Z,18.24
2023-03-06T05:45:51.569Z,18.21
2023-03-06T05:48:21.447Z,18.18
2023-03-06T05:50:57.580Z,18.18
2023-03-06T05:53:28.210Z,18.15
2023-03-06T05:56:00.098Z,18.12
2023-03-06T05:58:32.512Z,18.18
2023-03-06T06:01:09.117Z,18.12
2023-03-06T06:03:39.699Z,18.02
2023-03-06T06:06:11.753Z,17.95
2023-03-06T06:08:41.888Z,18.02
2023-03-06T06:11:13.626Z,18.02
2023-03-06T06:13:43.560Z,17.98
2023-03-06T06:16:20.263Z,17.94
2023-03-06T06:18:50.208Z,17.89
2023-03-06T06:21:20.125Z,17.92
2023-03-06T06:23:49.730Z,17.91
2023-03-06T06:26:19.650Z,17.88
2023-03-06T06:28:49.457Z,17.85
2023-03-06T06:31:19.086Z,17.81
2023-03-06T06:33:49.078Z,17.81
2023-03-06T06:36:20.963Z,17.79
2023-03-06T06:38:51.665Z,17.79
2023-03-06T06:41:50.746Z,17.81
2023-03-06T06:44:15.660Z,17.81
2023-03-06T06:49:36.748Z,17.73
2023-03-06T06:52:07.496Z,17.71
2023-03-06T06:54:37.402Z,17.74
2023-03-06T06:57:06.973Z,17.71
2023-03-06T06:59:36.722Z,17.68
2023-03-06T07:02:08.444Z,17.64
2023-03-06T07:04:38.793Z,17.67
2023-03-06T07:07:09.690Z,17.68
2023-03-06T07:09:43.217Z,17.67
2023-03-06T07:12:13.154Z,17.61
2023-03-06T07:14:43.432Z,17.61
2023-03-06T07:17:13.244Z,17.58
2023-03-06T07:19:42.804Z,17.57
2023-03-06T07:22:12.807Z,17.53
2023-03-06T07:24:42.578Z,17.47
2023-03-06T07:27:12.174Z,17.48
2023-03-06T07:29:45.436Z,17.51
2023-03-06T07:32:15.465Z,17.47
2023-03-06T07:34:46.433Z,17.44
2023-03-06T07:37:16.534Z,17.44
2023-03-06T07:39:46.091Z,17.39
2023-03-06T07:42:16.978Z,17.39
2023-03-06T07:44:57.484Z,17.40
2023-03-06T07:47:27.239Z,17.44
2023-03-06T07:49:58.232Z,17.44
2023-03-06T07:52:28.179Z,17.44
2023-03-06T07:54:57.908Z,17.40
2023-03-06T07:57:27.731Z,17.41
2023-03-06T07:59:57.703Z,17.40
2023-03-06T08:02:27.498Z,17.37
2023-03-06T08:04:57.744Z,17.34
2023-03-06T08:07:28.605Z,17.33
2023-03-06T08:09:58.379Z,17.31
2023-03-06T08:12:28.617Z,17.34
2023-03-06T08:14:58.646Z,17.36
2023-03-06T08:17:28.240Z,17.37
2023-03-06T08:19:58.075Z,17.33
2023-03-06T08:22:28.087Z,17.30
2023-03-06T08:24:57.953Z,17.27
2023-03-06T08:27:27.875Z,17.23
2023-03-06T08:29:57.919Z,17.23
2023-03-06T08:32:28.310Z,17.19
2023-03-06T08:34:58.157Z,17.19
2023-03-06T08:37:28.159Z,17.22
2023-03-06T08:39:58.263Z,17.18
2023-03-06T08:42:28.019Z,17.09
2023-03-06T08:44:57.980Z,17.02
2023-03-06T08:47:27.948Z,17.09
2023-03-06T08:50:00.446Z,17.12
2023-03-06T08:52:31.616Z,17.13
2023-03-06T08:55:04.597Z,17.08
2023-03-06T08:57:34.573Z,16.98
2023-03-06T09:00:08.194Z,16.99
2023-03-06T09:02:38.389Z,17.02
2023-03-06T09:05:10.073Z,16.99
2023-03-06T09:07:40.282Z,16.99
2023-03-06T09:10:14.514Z,16.99
2023-03-06T09:12:50.547Z,16.96
2023-03-06T09:15:23.524Z,16.96
2023-03-06T09:17:55.244Z,16.92
2023-03-06T09:20:25.050Z,16.89
2023-03-06T09:22:55.020Z,16.89
2023-03-06T09:25:24.865Z,16.86
2023-03-06T09:28:10.156Z,16.90
2023-03-06T09:30:42.575Z,16.93
2023-03-06T09:33:12.412Z,16.90
2023-03-06T09:35:59.905Z,16.90
2023-03-06T09:38:30.104Z,16.88
2023-03-06T09:40:59.923Z,16.90
2023-03-06T09:43:46.314Z,16.98
2023-03-06T09:46:27.081Z,17.00
2023-03-06T09:49:13.844Z,16.96
2023-03-06T09:51:58.366Z,16.98
2023-03-06T09:54:45.370Z,17.02
2023-03-06T09:57:29.120Z,17.06
2023-03-06T10:00:13.936Z,17.27
2023-03-06T10:03:21.174Z,17.71
2023-03-06T10:06:19.593Z,18.04
2023-03-06T10:09:23.798Z,18.19
2023-03-06T10:11:55.961Z,18.13
2023-03-06T10:14:34.486Z,18.19
2023-03-06T10:17:05.026Z,18.59
2023-03-06T10:19:37.685Z,19.00
2023-03-06T10:22:25.847Z,19.49
2023-03-06T10:25:11.130Z,19.92
2023-03-06T10:28:39.111Z,20.35
2023-03-06T10:31:27.983Z,20.75
2023-03-06T10:33:58.043Z,21.03
2023-03-06T10:36:31.723Z,21.29
2023-03-06T10:39:02.862Z,21.56
2023-03-06T10:41:39.423Z,21.83
2023-03-06T10:44:10.496Z,22.05
2023-03-06T10:46:45.593Z,22.41
2023-03-06T10:49:31.723Z,22.92
2023-03-06T10:52:22.124Z,23.13
2023-03-06T10:54:51.902Z,23.22
2023-03-06T10:57:27.992Z,23.40
2023-03-06T11:00:24.583Z,23.52
2023-03-06T11:03:08.578Z,23.68
2023-03-06T11:05:39.061Z,23.58
2023-03-06T11:08:23.596Z,23.54
2023-03-06T11:11:36.440Z,23.44
2023-03-06T11:14:17.400Z,23.21
2023-03-06T11:16:55.201Z,22.93
2023-03-06T11:19:30.489Z,22.28
2023-03-06T11:22:18.920Z,21.83
2023-03-06T11:24:54.875Z,21.64
2023-03-06T11:27:35.648Z,21.46
2023-03-06T11:30:25.545Z,21.33
2023-03-06T11:33:03.238Z,21.37
2023-03-06T11:35:40.767Z,21.68
2023-03-06T11:38:18.718Z,22.12
2023-03-06T11:40:55.032Z,22.36
2023-03-06T11:43:28.731Z,22.55
2023-03-06T11:46:04.866Z,22.93
2023-03-06T11:48:45.067Z,23.83
2023-03-06T11:51:23.828Z,24.05
2023-03-06T11:53:56.105Z,24.23
2023-03-06T11:56:35.521Z,24.71
2023-03-06T11:59:16.634Z,25.56
2023-03-06T12:01:56.503Z,25.74
2023-03-06T12:04:28.883Z,25.84
2023-03-06T12:07:20.012Z,25.73
2023-03-06T12:09:49.743Z,26.14
2023-03-06T12:12:22.194Z,25.97
2023-03-06T12:15:03.752Z,26.51
2023-03-06T12:17:50.639Z,26.34
2023-03-06T12:20:44.057Z,25.60
2023-03-06T12:23:50.131Z,26.49
2023-03-06T12:26:19.866Z,26.47
2023-03-06T12:29:07.735Z,26.90
2023-03-06T12:31:59.840Z,27.36
2023-03-06T12:34:35.784Z,27.50
2023-03-06T12:37:10.788Z,27.94
2023-03-06T12:39:52.244Z,27.69
2023-03-06T12:42:31.073Z,27.88
2023-03-06T12:45:23.536Z,27.80
2023-03-06T12:47:59.966Z,27.48
2023-03-06T12:50:35.443Z,27.86
2023-03-06T12:53:08.838Z,28.04
2023-03-06T12:55:46.311Z,28.63
2023-03-06T12:58:38.082Z,29.05
2023-03-06T13:01:35.339Z,28.78
2023-03-06T13:04:32.714Z,29.18
2023-03-06T13:07:02.597Z,28.87
2023-03-06T13:09:56.626Z,28.97
2023-03-06T13:12:57.878Z,30.37
2023-03-06T13:15:41.878Z,31.71
2023-03-06T13:18:34.736Z,32.35
2023-03-06T13:21:05.660Z,32.27
2023-03-06T13:23:38.746Z,31.87
2023-03-06T13:26:33.021Z,31.32
2023-03-06T13:29:03.049Z,30.49
2023-03-06T13:31:37.470Z,30.78
2023-03-06T13:34:28.073Z,31.33
2023-03-06T13:37:29.369Z,30.86
2023-03-06T13:40:02.726Z,29.87
2023-03-06T13:43:02.974Z,30.25
2023-03-06T13:45:44.065Z,30.12
2023-03-06T13:48:44.930Z,30.16
2023-03-06T13:51:26.810Z,30.88
2023-03-06T13:54:02.341Z,31.41
2023-03-06T13:56:48.347Z,29.03
2023-03-06T13:59:21.117Z,28.13
2023-03-06T14:02:13.157Z,30.06
2023-03-06T14:05:02.575Z,30.13
2023-03-06T14:07:36.068Z,30.00
2023-03-06T14:10:22.821Z,30.58
2023-03-06T14:12:52.721Z,31.23
2023-03-06T14:15:24.106Z,31.40
2023-03-06T14:18:08.860Z,32.52
2023-03-06T14:20:40.964Z,31.71
2023-03-06T14:23:23.001Z,31.91
2023-03-06T14:26:16.596Z,33.61
2023-03-06T14:29:01.872Z,32.31
2023-03-06T14:31:39.863Z,31.90
2023-03-06T14:34:10.441Z,31.92
2023-03-06T14:36:50.330Z,32.32
2023-03-06T14:39:44.775Z,33.20
2023-03-06T14:42:27.938Z,32.69
2023-03-06T14:45:08.812Z,32.46
2023-03-06T14:47:38.893Z,32.24
2023-03-06T14:50:27.536Z,33.59
2023-03-06T14:53:16.925Z,33.00
2023-03-06T14:55:59.000Z,32.45
2023-03-06T14:58:39.641Z,33.48
2023-03-06T15:01:14.424Z,34.74
2023-03-06T15:03:49.602Z,34.23
2023-03-06T15:06:53.038Z,31.84
2023-03-06T15:09:26.671Z,32.05
2023-03-06T15:12:02.119Z,33.38
2023-03-06T15:14:37.031Z,34.64
2023-03-06T15:17:25.280Z,35.46
2023-03-06T15:20:00.243Z,34.68
2023-03-06T15:22:41.264Z,33.99
2023-03-06T15:25:31.640Z,33.27
2023-03-06T15:28:04.658Z,32.18
2023-03-06T15:30:37.118Z,33.68
2023-03-06T15:33:24.670Z,34.16
2023-03-06T15:35:59.304Z,33.91
2023-03-06T15:38:44.106Z,33.68
2023-03-06T15:41:36.791Z,32.84
2023-03-06T15:44:16.770Z,32.70
2023-03-06T15:46:48.467Z,32.97
2023-03-06T15:49:19.985Z,32.69
2023-03-06T15:51:50.012Z,34.35
2023-03-06T15:54:19.872Z,35.42
2023-03-06T15:56:51.843Z,35.32
2023-03-06T15:59:35.002Z,34.33
2023-03-06T16:02:15.177Z,33.40
2023-03-06T16:04:46.204Z,32.59
2023-03-06T16:07:17.259Z,33.58
2023-03-06T16:09:47.685Z,34.42
2023-03-06T16:12:20.834Z,33.84
2023-03-06T16:14:51.292Z,34.74
2023-03-06T16:17:21.106Z,34.66
2023-03-06T16:19:52.125Z,35.49
2023-03-06T16:22:21.891Z,36.40
2023-03-06T16:24:52.100Z,36.61
2023-03-06T16:27:24.573Z,35.32
2023-03-06T16:29:54.328Z,35.45
2023-03-06T16:32:28.606Z,34.39
2023-03-06T16:34:58.564Z,33.96
2023-03-06T16:37:28.328Z,34.83
2023-03-06T16:39:58.247Z,36.50
2023-03-06T16:42:28.071Z,34.54
2023-03-06T16:44:57.644Z,34.68
2023-03-06T16:47:27.292Z,35.14
2023-03-06T16:49:59.108Z,35.10
2023-03-06T16:52:29.441Z,34.73
2023-03-06T16:54:59.257Z,35.45
2023-03-06T16:57:33.253Z,37.42
2023-03-06T17:00:03.235Z,37.77
2023-03-06T17:02:33.098Z,36.96
2023-03-06T17:05:02.784Z,35.48
2023-03-06T17:07:37.706Z,32.27
2023-03-06T17:10:10.637Z,30.85
2023-03-06T17:12:40.626Z,32.01
2023-03-06T17:15:12.170Z,33.17
2023-03-06T17:17:42.089Z,33.58
2023-03-06T17:20:14.029Z,33.98
2023-03-06T17:22:44.069Z,34.33
2023-03-06T17:25:13.738Z,33.11
2023-03-06T17:27:43.538Z,31.64
2023-03-06T17:30:14.447Z,30.24
2023-03-06T17:32:44.269Z,31.81
2023-03-06T17:35:13.956Z,30.99
2023-03-06T17:37:43.602Z,32.32
2023-03-06T17:40:13.873Z,33.11
2023-03-06T17:42:43.656Z,33.38
2023-03-06T17:45:13.838Z,34.08
2023-03-06T17:47:43.658Z,31.44
2023-03-06T17:50:13.501Z,31.76
2023-03-06T17:52:43.315Z,32.25
2023-03-06T17:55:12.975Z,33.50
2023-03-06T17:57:42.610Z,33.13
2023-03-06T18:00:13.346Z,33.20
2023-03-06T18:02:46.520Z,34.15
2023-03-06T18:05:16.575Z,33.54
2023-03-06T18:07:46.389Z,33.47
2023-03-06T18:10:16.026Z,32.89
2023-03-06T18:12:46.639Z,33.54
2023-03-06T18:15:16.861Z,33.24
2023-03-06T18:17:47.208Z,34.02
2023-03-06T18:20:17.200Z,35.21
2023-03-06T18:22:46.995Z,34.25
2023-03-06T18:25:16.889Z,33.72
2023-03-06T18:27:46.798Z,33.68
2023-03-06T18:30:16.768Z,34.22
2023-03-06T18:32:46.581Z,34.05
2023-03-06T18:35:16.752Z,33.71
2023-03-06T18:37:46.546Z,33.79
2023-03-06T18:40:16.514Z,32.66
2023-03-06T18:42:46.389Z,31.36
2023-03-06T18:45:16.112Z,31.04
2023-03-06T18:47:45.698Z,29.69
2023-03-06T18:50:18.564Z,29.12
2023-03-06T18:52:48.670Z,29.28
2023-03-06T18:55:18.577Z,31.43
2023-03-06T18:57:48.363Z,32.52
2023-03-06T19:00:18.548Z,32.42
2023-03-06T19:02:48.198Z,30.85
2023-03-06T19:05:18.482Z,31.25
2023-03-06T19:07:48.438Z,31.29
2023-03-06T19:10:18.186Z,30.18
2023-03-06T19:12:47.777Z,29.49
2023-03-06T19:15:17.809Z,30.40
2023-03-06T19:17:50.985Z,30.88
2023-03-06T19:20:25.311Z,31.12
2023-03-06T19:22:55.498Z,30.89
2023-03-06T19:25:25.431Z,30.57
2023-03-06T19:27:56.048Z,30.31
2023-03-06T19:30:26.882Z,30.45
2023-03-06T19:32:57.814Z,30.83
2023-03-06T19:35:29.133Z,30.28
2023-03-06T19:37:59.139Z,30.69
2023-03-06T19:40:28.920Z,30.28
2023-03-06T19:42:58.552Z,30.35
2023-03-06T19:45:28.651Z,29.97
2023-03-06T19:48:02.195Z,29.61
2023-03-06T19:50:32.390Z,29.84
2023-03-06T19:53:03.436Z,29.97
2023-03-06T19:55:33.477Z,30.30
2023-03-06T19:58:03.193Z,30.18
2023-03-06T20:00:33.687Z,30.13
2023-03-06T20:03:03.697Z,29.86
2023-03-06T20:05:33.332Z,29.84
2023-03-06T20:08:03.021Z,29.97
2023-03-06T20:10:33.072Z,30.06
2023-03-06T20:13:02.889Z,29.45
2023-03-06T20:15:36.155Z,29.36
2023-03-06T20:18:07.448Z,29.25
2023-03-06T20:20:40.294Z,29.12
2023-03-06T20:23:11.208Z,29.14
2023-03-06T20:25:41.085Z,28.86
2023-03-06T20:28:10.690Z,28.88
2023-03-06T20:30:40.691Z,28.71
2023-03-06T20:33:10.283Z,28.47
2023-03-06T20:35:43.940Z,28.39
2023-03-06T20:38:14.040Z,28.31
2023-03-06T20:40:44.740Z,28.46
2023-03-06T20:43:14.553Z,28.32
2023-03-06T20:45:44.201Z,28.32
2023-03-06T20:48:13.965Z,28.35
2023-03-06T20:50:43.516Z,28.12
2023-03-06T20:53:13.555Z,27.89
2023-03-06T20:55:43.287Z,27.84
2023-03-06T20:58:13.143Z,27.89
2023-03-06T21:00:42.718Z,27.88
2023-03-06T21:03:12.675Z,27.65
2023-03-06T21:05:42.286Z,27.67
2023-03-06T21:08:12.082Z,27.58
2023-03-06T21:10:42.082Z,27.46
2023-03-06T21:13:12.688Z,27.37
2023-03-06T21:15:46.348Z,27.23
2023-03-06T21:18:18.508Z,27.13
2023-03-06T21:20:48.393Z,27.16
2023-03-06T21:23:18.580Z,27.07
2023-03-06T21:25:53.174Z,27.06
2023-03-06T21:28:23.153Z,26.90
2023-03-06T21:30:52.736Z,26.80
2023-03-06T21:33:22.740Z,26.71
2023-03-06T21:35:52.984Z,26.72
2023-03-06T21:38:22.672Z,26.56
2023-03-06T21:40:52.313Z,26.34
2023-03-06T21:43:22.311Z,26.22
2023-03-06T21:45:53.834Z,26.20
2023-03-06T21:48:26.594Z,26.13
2023-03-06T21:51:09.227Z,26.01
2023-03-06T21:53:42.713Z,25.97
2023-03-06T21:56:14.366Z,25.93
2023-03-06T21:58:44.458Z,25.84
2023-03-06T22:01:25.645Z,25.76
2023-03-06T22:03:56.221Z,25.59
2023-03-06T22:06:27.903Z,25.39
2023-03-06T22:08:58.582Z,25.20
2023-03-06T22:11:32.264Z,25.09
2023-03-06T22:14:02.247Z,24.98
2023-03-06T22:16:32.166Z,24.88
2023-03-06T22:19:01.806Z,24.85
2023-03-06T22:21:31.860Z,24.77
2023-03-06T22:24:01.677Z,24.61
2023-03-06T22:26:33.183Z,24.59
2023-03-06T22:29:03.132Z,24.51
2023-03-06T22:31:32.951Z,24.46
2023-03-06T22:34:03.329Z,24.40
2023-03-06T22:36:33.546Z,24.24
2023-03-06T22:39:06.259Z,24.19
2023-03-06T22:41:36.242Z,24.10
2023-03-06T22:44:06.234Z,24.06
2023-03-06T22:46:36.319Z,23.99
2023-03-06T22:49:06.386Z,23.99
2023-03-06T22:51:38.612Z,23.89
2023-03-06T22:54:09.987Z,23.82
2023-03-06T22:56:39.893Z,23.76
2023-03-06T22:59:10.240Z,23.65
2023-03-06T23:01:39.940Z,23.62
2023-03-06T23:04:12.303Z,23.59
2023-03-06T23:06:44.316Z,23.59
2023-03-06T23:09:22.914Z,23.51
2023-03-06T23:12:12.703Z,23.42
2023-03-06T23:15:00.926Z,23.40
2023-03-06T23:17:49.082Z,23.32
2023-03-06T23:20:36.970Z,23.24
2023-03-06T23:23:25.430Z,23.17
2023-03-06T23:26:00.241Z,23.15
2023-03-06T23:28:30.885Z,23.07
2023-03-06T23:31:00.976Z,23.01
2023-03-06T23:33:31.278Z,22.94
2023-03-06T23:36:05.674Z,23.01
2023-03-06T23:38:36.023Z,23.01
2023-03-06T23:41:13.887Z,23.01
2023-03-06T23:43:45.853Z,22.99
2023-03-06T23:46:20.730Z,22.97
2023-03-06T23:48:51.570Z,22.89
2023-03-06T23:51:24.309Z,22.77
2023-03-06T23:54:01.705Z,22.69
2023-03-06T23:56:32.436Z,22.72
2023-03-06T23:59:23.682Z,22.67
